createdAt,value
2023-04-27T00:02:25.553Z,61.25
2023-04-27T00:04:58.656Z,61.11
2023-04-27T00:07:31.479Z,61.30
2023-04-27T00:10:02.278Z,61.24
2023-04-27T00:12:32.329Z,61.02
2023-04-27T00:15:02.490Z,61.05
2023-04-27T00:17:32.550Z,61.10
2023-04-27T00:20:12.044Z,61.17
2023-04-27T00:22:42.664Z,60.84
2023-04-27T00:25:13.425Z,61.00
2023-04-27T00:27:43.616Z,61.00
2023-04-27T00:30:15.861Z,61.01
2023-04-27T00:32:48.981Z,60.69
2023-04-27T00:35:22.989Z,61.00
2023-04-27T00:37:55.655Z,60.91
2023-04-27T00:40:25.802Z,60.99
2023-04-27T00:42:59.030Z,60.93
2023-04-27T00:45:31.514Z,60.96
2023-04-27T00:48:02.804Z,61.31
2023-04-27T00:50:42.173Z,60.98
2023-04-27T00:53:14.944Z,60.73
2023-04-27T00:55:48.639Z,60.64
2023-04-27T00:58:19.333Z,60.61
2023-04-27T01:00:49.466Z,60.90
2023-04-27T01:03:21.559Z,60.88
2023-04-27T01:05:54.644Z,60.99
2023-04-27T01:08:30.936Z,61.21
2023-04-27T01:11:01.144Z,61.42
2023-04-27T01:13:31.149Z,61.43
2023-04-27T01:16:01.340Z,61.63
2023-04-27T01:18:33.815Z,61.81
2023-04-27T01:21:07.551Z,61.92
2023-04-27T01:23:41.127Z,62.20
2023-04-27T01:26:13.765Z,62.32
2023-04-27T01:28:44.982Z,62.58
2023-04-27T01:31:15.384Z,62.37
2023-04-27T01:33:45.742Z,62.65
2023-04-27T01:36:17.622Z,62.60
2023-04-27T01:38:51.361Z,62.61
2023-04-27T01:41:21.565Z,63.00
2023-04-27T01:43:51.652Z,62.87
2023-04-27T01:46:22.405Z,62.95
2023-04-27T01:48:53.812Z,63.13
2023-04-27T01:51:23.980Z,63.10
2023-04-27T01:53:57.057Z,62.96
2023-04-27T01:56:27.164Z,63.04
2023-04-27T01:59:01.461Z,63.01
2023-04-27T02:01:33.869Z,63.20
2023-04-27T02:04:04.425Z,63.20
2023-04-27T02:06:35.822Z,63.13
2023-04-27T02:09:24.759Z,63.42
2023-04-27T02:11:58.193Z,63.41
2023-04-27T02:14:29.194Z,63.14
2023-04-27T02:17:00.296Z,63.25
2023-04-27T02:19:31.276Z,63.47
2023-04-27T02:22:01.696Z,63.42
2023-04-27T02:24:38.340Z,63.52
2023-04-27T02:27:10.463Z,63.41
2023-04-27T02:29:41.698Z,63.49
2023-04-27T02:32:14.689Z,63.57
2023-04-27T02:34:46.081Z,63.41
2023-04-27T02:37:19.113Z,63.42
2023-04-27T02:39:52.472Z,63.38
2023-04-27T02:42:26.339Z,63.61
2023-04-27T02:44:58.136Z,63.72
2023-04-27T02:47:28.224Z,63.76
2023-04-27T02:49:58.366Z,63.88
2023-04-27T02:52:32.280Z,63.63
2023-04-27T02:55:04.958Z,63.90
2023-04-27T02:57:35.031Z,64.02
2023-04-27T03:00:05.540Z,63.96
2023-04-27T03:02:38.736Z,64.04
2023-04-27T03:05:10.214Z,64.15
2023-04-27T03:07:40.430Z,64.05
2023-04-27T03:10:14.236Z,63.78
2023-04-27T03:12:44.438Z,64.01
2023-04-27T03:15:14.699Z,63.77
2023-04-27T03:17:45.375Z,63.95
2023-04-27T03:20:16.455Z,63.93
2023-04-27T03:22:47.206Z,64.09
2023-04-27T03:25:20.016Z,63.85
2023-04-27T03:27:50.130Z,63.88
2023-04-27T03:30:20.368Z,64.30
2023-04-27T03:32:52.395Z,64.07
2023-04-27T03:35:22.564Z,64.05
2023-04-27T03:37:53.378Z,64.05
2023-04-27T03:40:27.035Z,64.33
2023-04-27T03:42:59.004Z,64.57
2023-04-27T03:45:38.887Z,64.51
2023-04-27T03:48:12.024Z,64.62
2023-04-27T03:50:42.382Z,64.91
2023-04-27T03:53:14.434Z,64.55
2023-04-27T03:55:48.211Z,64.59
2023-04-27T03:58:19.900Z,64.74
2023-04-27T04:01:12.439Z,65.00
2023-04-27T04:03:43.017Z,64.83
2023-04-27T04:06:13.418Z,64.94
2023-04-27T04:08:43.648Z,64.74
2023-04-27T04:11:23.574Z,64.52
2023-04-27T04:13:57.368Z,64.61
2023-04-27T04:16:38.148Z,64.74
2023-04-27T04:19:08.418Z,64.89
2023-04-27T04:21:38.529Z,64.89
2023-04-27T04:24:10.396Z,64.85
2023-04-27T04:26:47.409Z,64.82
2023-04-27T04:29:25.253Z,64.69
2023-04-27T04:31:55.470Z,64.84
2023-04-27T04:34:29.396Z,64.92
2023-04-27T04:37:02.506Z,64.61
2023-04-27T04:39:34.394Z,64.70
2023-04-27T04:42:08.492Z,64.60
2023-04-27T04:44:46.313Z,64.66
2023-04-27T04:47:18.048Z,65.05
2023-04-27T04:49:58.301Z,64.78
2023-04-27T04:52:32.425Z,64.62
2023-04-27T04:55:02.512Z,64.81
2023-04-27T04:57:36.197Z,64.57
2023-04-27T05:00:11.827Z,64.97
2023-04-27T05:02:42.522Z,64.92
2023-04-27T05:05:13.143Z,64.77
2023-04-27T05:07:53.122Z,64.51
2023-04-27T05:10:23.101Z,64.56
2023-04-27T05:12:56.458Z,64.54
2023-04-27T05:15:26.730Z,64.37
2023-04-27T05:17:57.129Z,64.21
2023-04-27T05:20:27.265Z,63.97
2023-04-27T05:22:57.407Z,63.87
2023-04-27T05:25:27.454Z,62.15
2023-04-27T05:28:00.725Z,57.21
2023-04-27T05:30:31.050Z,53.07
2023-04-27T05:33:01.195Z,50.00
2023-04-27T05:35:33.486Z,47.77
2023-04-27T05:38:04.184Z,46.15
2023-04-27T05:40:34.320Z,45.49
2023-04-27T05:43:07.619Z,45.12
2023-04-27T05:45:42.465Z,45.02
2023-04-27T05:48:12.653Z,44.64
2023-04-27T05:50:42.739Z,44.64
2023-04-27T05:53:12.923Z,44.41
2023-04-27T05:55:43.433Z,44.45
2023-04-27T05:58:16.425Z,44.74
2023-04-27T06:00:47.317Z,45.39
2023-04-27T06:03:17.584Z,45.76
2023-04-27T06:05:47.968Z,46.60
2023-04-27T06:08:19.432Z,47.08
2023-04-27T06:10:49.469Z,47.60
2023-04-27T06:13:22.474Z,48.62
2023-04-27T06:15:52.596Z,49.60
2023-04-27T06:18:23.674Z,50.72
2023-04-27T06:20:54.009Z,52.01
2023-04-27T06:23:24.226Z,52.98
2023-04-27T06:25:54.407Z,53.77
2023-04-27T06:28:27.404Z,54.47
2023-04-27T06:30:57.646Z,54.68
2023-04-27T06:33:27.882Z,55.11
2023-04-27T06:35:58.598Z,55.39
2023-04-27T06:38:28.693Z,55.67
2023-04-27T06:40:59.459Z,55.92
2023-04-27T06:43:33.879Z,56.16
2023-04-27T06:46:04.239Z,56.62
2023-04-27T06:48:34.352Z,56.66
2023-04-27T06:51:04.529Z,56.72
2023-04-27T06:53:34.541Z,57.04
2023-04-27T06:56:04.966Z,57.43
2023-04-27T06:58:37.848Z,57.59
2023-04-27T07:01:07.996Z,57.82
2023-04-27T07:03:38.787Z,58.07
2023-04-27T07:06:09.173Z,58.40
2023-04-27T07:08:39.391Z,58.27
2023-04-27T07:11:09.545Z,58.44
2023-04-27T07:13:42.700Z,58.21
2023-04-27T07:16:13.094Z,58.26
2023-04-27T07:18:43.667Z,58.40
2023-04-27T07:21:14.036Z,58.26
2023-04-27T07:23:44.197Z,58.34
2023-04-27T07:26:14.247Z,57.84
2023-04-27T07:28:47.416Z,57.68
2023-04-27T07:31:17.915Z,57.45
2023-04-27T07:33:48.128Z,57.57
2023-04-27T07:36:18.260Z,57.53
2023-04-27T07:38:48.766Z,57.55
2023-04-27T07:41:20.445Z,57.45
2023-04-27T07:43:53.090Z,57.39
2023-04-27T07:46:23.356Z,57.12
2023-04-27T07:48:55.390Z,56.79
2023-04-27T07:51:25.414Z,56.63
2023-04-27T07:53:55.660Z,56.53
2023-04-27T07:56:25.880Z,56.85
2023-04-27T07:58:58.674Z,56.72
2023-04-27T08:01:28.870Z,56.34
2023-04-27T08:03:59.732Z,56.76
2023-04-27T08:06:31.630Z,57.11
2023-04-27T08:09:04.301Z,56.91
2023-04-27T08:11:34.819Z,57.33
2023-04-27T08:14:13.522Z,57.67
2023-04-27T08:16:44.150Z,57.62
2023-04-27T08:19:14.721Z,57.59
2023-04-27T08:21:53.963Z,56.81
2023-04-27T08:24:24.052Z,56.41
2023-04-27T08:26:57.610Z,56.58
2023-04-27T08:29:30.647Z,56.36
2023-04-27T08:32:05.357Z,56.50
2023-04-27T08:34:35.477Z,55.88
2023-04-27T08:37:05.619Z,56.11
2023-04-27T08:39:35.694Z,55.98
2023-04-27T08:42:13.885Z,55.98
2023-04-27T08:44:47.515Z,55.54
2023-04-27T08:47:28.314Z,55.42
2023-04-27T08:50:06.159Z,54.81
2023-04-27T08:52:36.225Z,55.17
2023-04-27T08:55:09.576Z,54.91
2023-04-27T08:57:39.894Z,54.87
2023-04-27T09:00:15.392Z,55.48
2023-04-27T09:02:50.147Z,55.56
2023-04-27T09:05:20.742Z,55.83
2023-04-27T09:08:05.920Z,55.32
2023-04-27T09:10:47.050Z,56.00
2023-04-27T09:13:17.845Z,56.09
2023-04-27T09:15:53.576Z,55.95
2023-04-27T09:18:24.962Z,55.74
2023-04-27T09:20:58.344Z,55.29
2023-04-27T09:23:32.017Z,54.98
2023-04-27T09:26:08.335Z,55.68
2023-04-27T09:28:41.540Z,55.53
2023-04-27T09:31:36.877Z,55.57
2023-04-27T09:34:10.384Z,55.41
2023-04-27T09:36:42.913Z,55.18
2023-04-27T09:39:13.328Z,55.33
2023-04-27T09:41:43.913Z,54.93
2023-04-27T09:44:18.346Z,55.16
2023-04-27T09:46:54.522Z,54.93
2023-04-27T09:49:26.522Z,54.66
2023-04-27T09:51:59.138Z,54.46
2023-04-27T09:54:33.172Z,55.18
2023-04-27T09:57:18.517Z,55.51
2023-04-27T10:00:11.339Z,55.52
2023-04-27T10:03:00.042Z,55.72
2023-04-27T10:06:00.295Z,55.25
2023-04-27T10:08:32.092Z,55.85
2023-04-27T10:11:02.110Z,55.50
2023-04-27T10:13:34.871Z,56.10
2023-04-27T10:16:21.223Z,55.37
2023-04-27T10:19:03.628Z,54.90
2023-04-27T10:21:33.941Z,54.48
2023-04-27T10:24:11.389Z,54.37
2023-04-27T10:26:51.867Z,53.58
2023-04-27T10:29:21.962Z,53.35
2023-04-27T10:31:55.821Z,53.15
2023-04-27T10:34:31.430Z,52.61
2023-04-27T10:37:09.007Z,52.36
2023-04-27T10:39:48.632Z,52.16
2023-04-27T10:42:30.234Z,51.56
2023-04-27T10:45:01.125Z,50.90
2023-04-27T10:47:41.237Z,50.73
2023-04-27T10:50:16.697Z,50.57
2023-04-27T10:52:47.384Z,50.57
2023-04-27T10:55:19.051Z,50.53
2023-04-27T10:57:51.156Z,50.29
2023-04-27T11:00:32.022Z,50.74
2023-04-27T11:03:17.585Z,50.55
2023-04-27T11:05:51.927Z,51.94
2023-04-27T11:08:22.514Z,44.78
2023-04-27T11:10:54.026Z,51.68
2023-04-27T11:13:26.282Z,51.20
2023-04-27T11:15:58.481Z,50.96
2023-04-27T11:18:30.797Z,50.82
2023-04-27T11:21:13.117Z,51.04
2023-04-27T11:23:44.480Z,52.42
2023-04-27T11:26:16.287Z,52.97
2023-04-27T11:28:47.775Z,53.62
2023-04-27T11:31:17.866Z,53.66
2023-04-27T11:33:56.023Z,53.44
2023-04-27T11:36:29.092Z,53.89
2023-04-27T11:39:06.623Z,53.44
2023-04-27T11:41:46.572Z,53.44
2023-04-27T11:44:16.742Z,53.22
2023-04-27T11:46:48.277Z,52.77
2023-04-27T11:49:18.664Z,52.27
2023-04-27T11:51:54.598Z,52.46
2023-04-27T11:54:31.825Z,50.96
2023-04-27T11:57:08.972Z,51.87
2023-04-27T11:59:39.248Z,51.67
2023-04-27T12:02:10.352Z,52.69
2023-04-27T12:04:43.348Z,52.98
2023-04-27T12:07:16.144Z,53.06
2023-04-27T12:09:46.339Z,52.21
2023-04-27T12:12:18.497Z,52.60
2023-04-27T12:14:50.822Z,52.07
2023-04-27T12:17:22.710Z,51.63
2023-04-27T12:19:52.807Z,51.21
2023-04-27T12:22:29.023Z,51.28
2023-04-27T12:24:59.829Z,51.61
2023-04-27T12:27:30.022Z,52.34
2023-04-27T12:30:01.564Z,52.24
2023-04-27T12:32:32.061Z,52.66
2023-04-27T12:35:02.137Z,51.97
2023-04-27T12:37:37.367Z,51.38
2023-04-27T12:40:16.838Z,50.38
2023-04-27T12:42:47.799Z,50.56
2023-04-27T12:45:19.866Z,50.79
2023-04-27T12:48:03.350Z,50.70
2023-04-27T12:50:35.419Z,50.47
2023-04-27T12:53:08.040Z,50.59
2023-04-27T12:55:38.395Z,50.58
2023-04-27T12:58:16.391Z,50.08
2023-04-27T13:00:52.167Z,50.09
2023-04-27T13:03:23.844Z,50.34
2023-04-27T13:05:56.460Z,50.66
2023-04-27T13:08:31.398Z,50.64
2023-04-27T13:11:01.658Z,50.79
2023-04-27T13:13:32.833Z,50.40
2023-04-27T13:16:04.731Z,50.74
2023-04-27T13:18:37.026Z,49.90
2023-04-27T13:21:25.249Z,48.54
2023-04-27T13:24:00.364Z,50.03
2023-04-27T13:26:31.225Z,50.42
2023-04-27T13:29:03.750Z,50.13
2023-04-27T13:31:35.165Z,49.64
2023-04-27T13:34:07.195Z,50.42
2023-04-27T13:36:37.244Z,51.00
2023-04-27T13:39:10.369Z,50.69
2023-04-27T13:41:40.450Z,50.76
2023-04-27T13:44:10.991Z,50.54
2023-04-27T13:46:42.539Z,50.70
2023-04-27T13:49:12.979Z,50.46
2023-04-27T13:51:43.277Z,50.88
2023-04-27T13:54:16.546Z,51.13
2023-04-27T13:56:55.222Z,51.07
2023-04-27T13:59:25.703Z,50.98
2023-04-27T14:01:56.405Z,50.39
2023-04-27T14:04:26.487Z,50.23
2023-04-27T14:06:56.775Z,49.88
2023-04-27T14:09:30.362Z,50.20
2023-04-27T14:12:02.909Z,49.91
2023-04-27T14:14:33.114Z,49.72
2023-04-27T14:17:17.722Z,50.31
2023-04-27T14:19:47.724Z,49.88
2023-04-27T14:22:20.142Z,50.16
2023-04-27T14:24:53.012Z,50.11
2023-04-27T14:27:25.429Z,49.22
2023-04-27T14:29:55.558Z,49.89
2023-04-27T14:32:25.970Z,49.93
2023-04-27T14:35:00.004Z,50.16
2023-04-27T14:37:30.126Z,49.79
2023-04-27T14:40:12.322Z,49.65
2023-04-27T14:42:42.488Z,49.71
2023-04-27T14:45:13.633Z,49.62
2023-04-27T14:47:45.175Z,49.30
2023-04-27T14:50:15.734Z,49.74
2023-04-27T14:52:46.166Z,49.83
2023-04-27T14:55:18.941Z,49.72
2023-04-27T14:57:49.294Z,50.33
2023-04-27T15:00:20.322Z,50.12
2023-04-27T15:02:50.639Z,50.08
2023-04-27T15:05:20.854Z,49.53
2023-04-27T15:07:50.976Z,49.57
2023-04-27T15:10:23.798Z,50.09
2023-04-27T15:12:53.944Z,49.57
2023-04-27T15:15:24.715Z,49.42
2023-04-27T15:17:54.782Z,49.45
2023-04-27T15:20:24.783Z,49.32
2023-04-27T15:22:54.874Z,48.94
2023-04-27T15:25:29.721Z,48.59
2023-04-27T15:28:03.770Z,48.53
2023-04-27T15:30:35.627Z,48.52
2023-04-27T15:33:10.385Z,48.60
2023-04-27T15:35:43.538Z,48.87
2023-04-27T15:38:15.306Z,48.56
2023-04-27T15:40:49.174Z,48.71
2023-04-27T15:43:19.253Z,48.69
2023-04-27T15:45:49.260Z,48.79
2023-04-27T15:48:19.392Z,48.74
2023-04-27T15:50:49.759Z,49.01
2023-04-27T15:53:19.955Z,49.59
2023-04-27T15:55:52.664Z,49.31
2023-04-27T15:58:22.919Z,49.48
2023-04-27T16:00:53.186Z,49.51
2023-04-27T16:03:23.505Z,49.39
2023-04-27T16:06:03.867Z,49.38
2023-04-27T16:08:36.849Z,49.54
2023-04-27T16:11:11.678Z,49.72
2023-04-27T16:13:42.077Z,49.65
2023-04-27T16:16:18.877Z,49.74
2023-04-27T16:18:51.362Z,49.78
2023-04-27T16:21:21.695Z,50.17
2023-04-27T16:23:52.287Z,50.76
2023-04-27T16:26:27.772Z,50.75
2023-04-27T16:29:01.032Z,50.54
2023-04-27T16:31:32.761Z,50.20
2023-04-27T16:34:05.199Z,50.10
2023-04-27T16:36:35.551Z,50.36
2023-04-27T16:39:06.152Z,50.18
2023-04-27T16:41:47.958Z,49.38
2023-04-27T16:44:18.411Z,49.58
2023-04-27T16:46:48.963Z,49.54
2023-04-27T16:49:19.025Z,49.88
2023-04-27T16:51:49.135Z,50.02
2023-04-27T16:54:20.757Z,49.30
2023-04-27T16:56:55.102Z,49.57
2023-04-27T16:59:35.347Z,50.00
2023-04-27T17:02:16.966Z,49.05
2023-04-27T17:04:54.483Z,49.34
2023-04-27T17:07:25.705Z,49.88
2023-04-27T17:09:56.339Z,49.95
2023-04-27T17:12:29.154Z,50.18
2023-04-27T17:15:01.736Z,50.35
2023-04-27T17:17:33.836Z,50.01
2023-04-27T17:20:07.370Z,49.98
2023-04-27T17:22:37.569Z,50.05
2023-04-27T17:25:11.959Z,50.29
2023-04-27T17:27:44.631Z,50.34
2023-04-27T17:30:16.920Z,50.21
2023-04-27T17:32:47.161Z,50.16
2023-04-27T17:35:19.543Z,50.01
2023-04-27T17:37:49.588Z,50.29
2023-04-27T17:40:21.164Z,50.22
2023-04-27T17:42:56.528Z,50.08
2023-04-27T17:45:36.270Z,49.99
2023-04-27T17:48:12.770Z,50.54
2023-04-27T17:50:42.969Z,50.42
2023-04-27T17:53:13.084Z,50.84
2023-04-27T17:55:47.992Z,50.68
2023-04-27T17:58:21.614Z,50.85
2023-04-27T18:00:54.876Z,50.98
2023-04-27T18:03:27.147Z,50.98
2023-04-27T18:06:00.236Z,50.77
2023-04-27T18:08:30.569Z,50.87
2023-04-27T18:11:01.192Z,51.15
2023-04-27T18:13:33.968Z,51.01
2023-04-27T18:16:06.033Z,51.01
2023-04-27T18:18:36.222Z,50.99
2023-04-27T18:21:06.929Z,50.92
2023-04-27T18:23:38.965Z,50.87
2023-04-27T18:26:11.638Z,50.73
2023-04-27T18:28:44.425Z,50.93
2023-04-27T18:31:18.350Z,51.06
2023-04-27T18:33:49.275Z,51.09
2023-04-27T18:36:19.884Z,51.09
2023-04-27T18:38:51.126Z,51.36
2023-04-27T18:41:21.307Z,51.48
2023-04-27T18:43:54.928Z,51.62
2023-04-27T18:46:25.097Z,51.61
2023-04-27T18:48:55.170Z,51.55
2023-04-27T18:51:29.232Z,51.41
2023-04-27T18:53:59.312Z,51.60
2023-04-27T18:56:29.562Z,51.57
2023-04-27T18:59:02.912Z,52.10
2023-04-27T19:01:38.100Z,51.99
2023-04-27T19:04:08.820Z,51.88
2023-04-27T19:06:39.120Z,51.92
2023-04-27T19:09:10.298Z,51.83
2023-04-27T19:11:41.200Z,51.82
2023-04-27T19:14:14.619Z,52.10
2023-04-27T19:16:45.140Z,52.12
2023-04-27T19:19:15.617Z,51.97
2023-04-27T19:21:47.551Z,52.00
2023-04-27T19:24:17.685Z,52.01
2023-04-27T19:26:48.587Z,52.12
2023-04-27T19:29:22.438Z,52.37
2023-04-27T19:31:53.141Z,52.34
2023-04-27T19:34:24.182Z,52.44
2023-04-27T19:36:54.417Z,52.33
2023-04-27T19:39:25.441Z,52.21
2023-04-27T19:41:56.768Z,52.35
2023-04-27T19:44:29.924Z,52.51
2023-04-27T19:47:03.360Z,52.54
2023-04-27T19:49:36.820Z,52.72
2023-04-27T19:52:08.459Z,52.72
2023-04-27T19:54:39.677Z,52.43
2023-04-27T19:57:10.077Z,52.68
2023-04-27T19:59:42.907Z,52.58
2023-04-27T20:02:13.328Z,52.29
2023-04-27T20:04:43.848Z,52.27
2023-04-27T20:07:14.148Z,52.26
2023-04-27T20:09:44.502Z,52.14
2023-04-27T20:12:29.283Z,52.14
2023-04-27T20:15:08.260Z,51.95
2023-04-27T20:17:38.580Z,52.05
2023-04-27T20:20:12.565Z,52.09
2023-04-27T20:22:43.538Z,52.16
2023-04-27T20:25:14.898Z,52.09
2023-04-27T20:27:45.246Z,52.36
2023-04-27T20:30:20.256Z,52.43
2023-04-27T20:32:50.426Z,52.39
2023-04-27T20:35:20.598Z,52.27
2023-04-27T20:37:54.196Z,52.45
2023-04-27T20:40:32.151Z,52.50
2023-04-27T20:43:02.238Z,52.53
2023-04-27T20:45:37.294Z,52.47
2023-04-27T20:48:12.162Z,52.59
2023-04-27T20:50:42.770Z,52.88
2023-04-27T20:53:13.024Z,52.76
2023-04-27T20:55:43.340Z,52.84
2023-04-27T20:58:13.433Z,52.82
2023-04-27T21:00:46.591Z,52.72
2023-04-27T21:03:16.878Z,52.92
2023-04-27T21:05:49.225Z,53.03
2023-04-27T21:08:28.116Z,53.03
2023-04-27T21:10:58.426Z,53.09
2023-04-27T21:13:31.462Z,53.21
2023-04-27T21:16:05.162Z,53.17
2023-04-27T21:18:35.737Z,53.21
2023-04-27T21:21:07.499Z,53.21
2023-04-27T21:23:38.507Z,53.10
2023-04-27T21:26:12.697Z,53.17
2023-04-27T21:28:47.658Z,53.20
2023-04-27T21:31:20.964Z,53.05
2023-04-27T21:33:53.160Z,52.94
2023-04-27T21:36:23.493Z,52.83
2023-04-27T21:38:54.207Z,52.83
2023-04-27T21:41:25.992Z,52.83
2023-04-27T21:43:56.949Z,52.77
2023-04-27T21:46:29.964Z,52.87
2023-04-27T21:49:00.053Z,52.96
2023-04-27T21:51:30.151Z,52.85
2023-04-27T21:54:00.146Z,52.90
2023-04-27T21:56:30.508Z,53.12
2023-04-27T21:59:00.547Z,53.26
2023-04-27T22:01:33.370Z,53.18
2023-04-27T22:04:04.268Z,53.07
2023-04-27T22:06:38.178Z,53.24
2023-04-27T22:09:08.702Z,53.10
2023-04-27T22:11:42.590Z,53.16
2023-04-27T22:14:14.465Z,53.07
2023-04-27T22:16:49.055Z,53.09
2023-04-27T22:19:20.108Z,51.92
2023-04-27T22:21:50.120Z,53.16
2023-04-27T22:24:20.600Z,53.37
2023-04-27T22:26:51.005Z,53.18
2023-04-27T22:29:22.034Z,53.33
2023-04-27T22:31:55.390Z,53.47
2023-04-27T22:34:26.355Z,53.53
2023-04-27T22:36:57.113Z,53.44
2023-04-27T22:39:29.181Z,53.66
2023-04-27T22:41:59.415Z,53.37
2023-04-27T22:44:29.623Z,53.65
2023-04-27T22:47:02.838Z,53.74
2023-04-27T22:49:34.508Z,53.68
2023-04-27T22:52:04.898Z,53.96
2023-04-27T22:54:35.225Z,54.04
2023-04-27T22:57:08.268Z,54.16
2023-04-27T22:59:38.393Z,54.07
2023-04-27T23:02:11.579Z,54.03
2023-04-27T23:04:41.697Z,54.08
2023-04-27T23:07:12.126Z,54.14
2023-04-27T23:09:42.870Z,54.05
2023-04-27T23:12:12.881Z,54.31
2023-04-27T23:14:43.014Z,54.22
2023-04-27T23:17:15.755Z,53.94
2023-04-27T23:19:46.951Z,54.18
2023-04-27T23:22:16.865Z,54.17
2023-04-27T23:24:47.163Z,54.14
2023-04-27T23:27:17.286Z,53.98
2023-04-27T23:29:47.378Z,53.85
2023-04-27T23:32:20.215Z,54.01
2023-04-27T23:34:50.648Z,54.12
2023-04-27T23:37:22.567Z,54.11
2023-04-27T23:39:52.753Z,53.93
2023-04-27T23:42:22.931Z,54.00
2023-04-27T23:44:53.836Z,54.16
2023-04-27T23:47:27.893Z,54.05
2023-04-27T23:49:58.151Z,54.17
2023-04-27T23:52:30.278Z,54.13
2023-04-27T23:55:01.224Z,53.96
2023-04-27T23:57:31.434Z,53.89
